Time;durP1;ratioP1;P1;durP2;ratioP2;P2;SDS_P1;SDS_P2;PMS_P1;PMS_P2;Temp;Humidity;BMP_temperature;BMP_pressure;BME280_temperature;BME280_humidity;BME280_pressure;Samples;Min_cycle;Max_cycle;Signal;HPM_P1;HPM_P2
2023/07/22 00:00:18;;;;;;;;;;;15.50;99.90;;;;;;8377273;28;19925;-71
2023/07/22 00:04:19;;;;;;;;;;;15.50;99.90;;;;;;8380802;28;19986;-71
2023/07/22 00:08:23;;;;;;;;;;;15.40;99.90;;;;;;8376773;28;19955;-71
2023/07/22 00:12:25;;;;;;;;;;;15.40;99.90;;;;;;8382742;28;19925;-71
2023/07/22 00:16:29;;;;;;;;;;;15.40;99.90;;;;;;8394112;28;19971;-70
2023/07/22 00:20:31;;;;;;;;;;;15.30;99.90;;;;;;8357013;28;19990;-70
2023/07/22 00:24:33;;;;;;;;;;;15.30;99.90;;;;;;8363591;28;20376;-70
2023/07/22 00:28:35;;;;;;;;;;;15.30;99.90;;;;;;8393072;28;19928;-70
2023/07/22 00:32:40;;;;;;;;;;;15.30;99.90;;;;;;8389881;28;19931;-70
2023/07/22 00:36:44;;;;;;;;;;;15.30;99.90;;;;;;8404246;28;20446;-70
2023/07/22 00:40:45;;;;;;;;;;;15.30;99.90;;;;;;8379109;28;19939;-70
2023/07/22 00:44:47;;;;;;;;;;;15.20;99.90;;;;;;8353954;28;19925;-70
2023/07/22 00:48:49;;;;;;;;;;;15.20;99.90;;;;;;8369818;28;20269;-70
2023/07/22 00:52:51;;;;;;;;;;;15.20;99.90;;;;;;8378176;28;19924;-70
2023/07/22 00:56:53;;;;;;;;;;;15.20;99.90;;;;;;8381883;28;19925;-70
2023/07/22 01:00:55;;;;;;;;;;;15.20;99.90;;;;;;8385838;28;19932;-70
2023/07/22 01:04:57;;;;;;;;;;;15.20;99.90;;;;;;8387561;28;19928;-70
2023/07/22 01:08:59;;;;;;;;;;;15.20;99.90;;;;;;8392456;28;19932;-70
2023/07/22 01:13:00;;;;;;;;;;;15.20;99.90;;;;;;8369165;28;19924;-70
2023/07/22 01:17:02;;;;;;;;;;;15.20;99.90;;;;;;8359981;28;19925;-71
2023/07/22 01:21:06;;;;;;;;;;;15.20;99.90;;;;;;8391476;28;20019;-71
2023/07/22 01:25:08;;;;;;;;;;;15.10;99.90;;;;;;8365452;28;20011;-71
2023/07/22 01:29:09;;;;;;;;;;;15.10;99.90;;;;;;8368246;28;19929;-71
2023/07/22 01:33:11;;;;;;;;;;;15.10;99.90;;;;;;8364564;28;20375;-71
2023/07/22 01:37:13;;;;;;;;;;;15.00;99.90;;;;;;8387762;28;19931;-71
2023/07/22 01:41:14;;;;;;;;;;;14.90;99.90;;;;;;8370316;28;20272;-71
2023/07/22 01:45:16;;;;;;;;;;;14.90;99.90;;;;;;8381515;28;19970;-71
2023/07/22 01:49:18;;;;;;;;;;;14.90;99.90;;;;;;8385198;28;20023;-71
2023/07/22 01:53:20;;;;;;;;;;;14.80;99.90;;;;;;8368797;28;19994;-71
2023/07/22 01:57:22;;;;;;;;;;;14.80;99.90;;;;;;8390184;28;20004;-71
2023/07/22 02:01:24;;;;;;;;;;;14.70;99.90;;;;;;8363972;28;19924;-70
2023/07/22 02:05:27;;;;;;;;;;;14.70;99.90;;;;;;8379664;28;19925;-70
2023/07/22 02:09:28;;;;;;;;;;;14.60;99.90;;;;;;8372589;28;19940;-70
2023/07/22 02:13:30;;;;;;;;;;;14.60;99.90;;;;;;8369093;28;19924;-70
2023/07/22 02:17:32;;;;;;;;;;;14.60;99.90;;;;;;8370791;28;19931;-70
2023/07/22 02:21:34;;;;;;;;;;;14.60;99.90;;;;;;8367208;28;19925;-70
2023/07/22 02:25:36;;;;;;;;;;;14.50;99.90;;;;;;8362138;28;19924;-70
2023/07/22 02:29:37;;;;;;;;;;;14.50;99.90;;;;;;8365616;28;19929;-70
2023/07/22 02:33:39;;;;;;;;;;;14.50;99.90;;;;;;8385993;28;20031;-71
2023/07/22 02:37:41;;;;;;;;;;;14.40;99.90;;;;;;8403988;28;19929;-72
2023/07/22 02:41:42;;;;;;;;;;;14.40;99.90;;;;;;8379068;28;20334;-70
2023/07/22 02:45:44;;;;;;;;;;;14.30;99.90;;;;;;8381280;28;20387;-71
2023/07/22 02:49:46;;;;;;;;;;;14.30;99.90;;;;;;8381344;28;19932;-70
2023/07/22 02:53:47;;;;;;;;;;;14.30;99.90;;;;;;8383281;28;19932;-70
2023/07/22 02:57:49;;;;;;;;;;;14.30;99.90;;;;;;8389649;28;19931;-70
2023/07/22 03:01:51;;;;;;;;;;;14.20;99.90;;;;;;8390632;28;19925;-70
2023/07/22 03:05:53;;;;;;;;;;;14.20;99.90;;;;;;8372700;28;19925;-71
2023/07/22 03:09:54;;;;;;;;;;;14.20;99.90;;;;;;8385201;28;20330;-70
2023/07/22 03:13:56;;;;;;;;;;;14.10;99.90;;;;;;8371717;28;19930;-70
2023/07/22 03:17:59;;;;;;;;;;;14.10;99.90;;;;;;8372357;28;19925;-70
2023/07/22 03:22:01;;;;;;;;;;;14.10;99.90;;;;;;8381903;28;19924;-70
2023/07/22 03:26:02;;;;;;;;;;;14.10;99.90;;;;;;8368300;28;19983;-70
2023/07/22 03:30:07;;;;;;;;;;;14.00;99.90;;;;;;8385093;28;19924;-70
2023/07/22 03:34:09;;;;;;;;;;;14.00;99.90;;;;;;8395166;28;19978;-70
2023/07/22 03:38:10;;;;;;;;;;;14.00;99.90;;;;;;8385449;28;19936;-71
2023/07/22 03:42:12;;;;;;;;;;;14.00;99.90;;;;;;8373740;28;19932;-70
2023/07/22 03:46:14;;;;;;;;;;;13.90;99.90;;;;;;8385508;28;19925;-70
2023/07/22 03:50:15;;;;;;;;;;;13.90;99.90;;;;;;8385430;28;19929;-70
2023/07/22 03:54:17;;;;;;;;;;;13.90;99.90;;;;;;8391611;28;19977;-71
2023/07/22 03:58:18;;;;;;;;;;;13.80;99.90;;;;;;8374113;28;19924;-70
2023/07/22 04:02:20;;;;;;;;;;;13.80;99.90;;;;;;8350897;28;19925;-70
2023/07/22 04:06:22;;;;;;;;;;;13.80;99.90;;;;;;8369499;28;19931;-70
2023/07/22 04:10:24;;;;;;;;;;;13.80;99.90;;;;;;8376734;28;19925;-70
2023/07/22 04:14:26;;;;;;;;;;;13.80;99.90;;;;;;8386909;28;20331;-71
2023/07/22 04:18:33;;;;;;;;;;;13.80;99.90;;;;;;8384278;28;19951;-70
2023/07/22 04:22:34;;;;;;;;;;;13.80;99.90;;;;;;8377770;28;19925;-70
2023/07/22 04:26:36;;;;;;;;;;;13.80;99.90;;;;;;8385087;28;20330;-70
2023/07/22 04:30:39;;;;;;;;;;;13.90;99.90;;;;;;8391300;28;19924;-70
2023/07/22 04:34:41;;;;;;;;;;;13.90;99.90;;;;;;8361613;28;20329;-70
2023/07/22 04:38:43;;;;;;;;;;;13.90;99.90;;;;;;8386970;28;19950;-70
2023/07/22 04:42:44;;;;;;;;;;;13.90;99.90;;;;;;8392427;28;19924;-70
2023/07/22 04:46:46;;;;;;;;;;;13.90;99.90;;;;;;8381882;28;19928;-70
2023/07/22 04:50:48;;;;;;;;;;;13.90;99.90;;;;;;8364849;28;19968;-70
2023/07/22 04:54:50;;;;;;;;;;;13.90;99.90;;;;;;8376564;28;20265;-70
2023/07/22 04:58:51;;;;;;;;;;;13.90;99.90;;;;;;8374284;28;19925;-70
2023/07/22 05:02:55;;;;;;;;;;;14.00;99.90;;;;;;8392477;28;19970;-70
2023/07/22 05:06:57;;;;;;;;;;;14.00;99.90;;;;;;8389974;28;19979;-70
2023/07/22 05:10:59;;;;;;;;;;;14.10;99.90;;;;;;8388454;28;19947;-70
2023/07/22 05:15:00;;;;;;;;;;;14.20;99.90;;;;;;8357118;28;19925;-70
2023/07/22 05:19:04;;;;;;;;;;;14.30;99.90;;;;;;8367889;28;19924;-70
2023/07/22 05:23:06;;;;;;;;;;;14.40;99.90;;;;;;8363546;28;19925;-70
2023/07/22 05:27:07;;;;;;;;;;;14.50;99.90;;;;;;8369391;28;19924;-70
2023/07/22 05:31:10;;;;;;;;;;;14.60;99.90;;;;;;8357056;28;20399;-70
2023/07/22 05:35:12;;;;;;;;;;;14.70;99.90;;;;;;8390185;28;19924;-70
2023/07/22 05:39:17;;;;;;;;;;;14.80;99.90;;;;;;8381079;28;19925;-70
2023/07/22 05:43:19;;;;;;;;;;;14.90;99.90;;;;;;8380969;28;19925;-70
2023/07/22 05:47:20;;;;;;;;;;;15.00;99.90;;;;;;8383267;28;19924;-70
2023/07/22 05:51:22;;;;;;;;;;;15.10;99.90;;;;;;8384768;28;19924;-70
2023/07/22 05:55:24;;;;;;;;;;;15.10;99.90;;;;;;8389541;28;20318;-70
2023/07/22 05:59:25;;;;;;;;;;;15.20;99.90;;;;;;8367730;28;19925;-70
2023/07/22 06:03:27;;;;;;;;;;;15.20;99.90;;;;;;8369005;28;19970;-71
2023/07/22 06:07:29;;;;;;;;;;;15.20;99.90;;;;;;8365722;28;20012;-70
2023/07/22 06:36:47;;;;;;;;;;;15.70;99.90;;;;;;8374357;28;19924;-70
2023/07/22 06:40:51;;;;;;;;;;;15.80;99.90;;;;;;8371460;28;19932;-70
2023/07/22 06:44:53;;;;;;;;;;;15.90;99.90;;;;;;8368558;28;19936;-70
2023/07/22 06:48:56;;;;;;;;;;;16.00;99.90;;;;;;8347732;28;1864978;-71
2023/07/22 06:52:58;;;;;;;;;;;16.10;99.90;;;;;;8360640;28;19925;-71
2023/07/22 06:57:00;;;;;;;;;;;16.20;99.90;;;;;;8376452;28;19925;-71
2023/07/22 07:01:01;;;;;;;;;;;16.30;99.90;;;;;;8372605;28;19974;-71
2023/07/22 07:05:04;;;;;;;;;;;16.30;99.90;;;;;;8404957;28;20379;-71
2023/07/22 07:09:05;;;;;;;;;;;16.40;99.90;;;;;;8396947;28;19935;-71
2023/07/22 07:13:07;;;;;;;;;;;16.40;99.90;;;;;;8372341;28;19937;-71
2023/07/22 07:17:09;;;;;;;;;;;16.50;99.90;;;;;;8371897;28;20425;-71
2023/07/22 07:21:10;;;;;;;;;;;16.50;99.90;;;;;;8365231;28;19924;-71
2023/07/22 07:25:12;;;;;;;;;;;16.50;99.90;;;;;;8369596;28;19932;-71
2023/07/22 07:29:14;;;;;;;;;;;16.60;99.90;;;;;;8381142;28;20376;-71
2023/07/22 07:33:21;;;;;;;;;;;16.70;99.90;;;;;;8388231;28;19924;-71
2023/07/22 07:37:22;;;;;;;;;;;16.70;99.90;;;;;;8395621;28;19947;-71
2023/07/22 07:41:24;;;;;;;;;;;16.80;99.90;;;;;;8390191;28;20300;-71
2023/07/22 07:45:26;;;;;;;;;;;16.90;99.90;;;;;;8394001;28;19982;-71
2023/07/22 07:49:27;;;;;;;;;;;17.00;99.90;;;;;;8371692;28;20386;-71
2023/07/22 07:53:29;;;;;;;;;;;17.10;99.90;;;;;;8371786;28;19932;-71
2023/07/22 07:57:31;;;;;;;;;;;17.20;99.90;;;;;;8371016;28;19966;-71
2023/07/22 08:01:32;;;;;;;;;;;17.20;99.90;;;;;;8380950;28;19925;-71
2023/07/22 08:05:34;;;;;;;;;;;17.20;99.90;;;;;;8383697;28;19925;-71
2023/07/22 08:09:36;;;;;;;;;;;17.30;99.90;;;;;;8339148;28;19929;-71
2023/07/22 08:13:37;;;;;;;;;;;17.40;99.90;;;;;;8328466;28;19975;-71
2023/07/22 08:17:39;;;;;;;;;;;17.40;99.90;;;;;;8343665;28;19936;-71
2023/07/22 08:21:41;;;;;;;;;;;17.50;99.90;;;;;;8333980;28;19948;-70
2023/07/22 08:25:43;;;;;;;;;;;17.60;99.90;;;;;;8339018;28;20284;-70
2023/07/22 08:29:44;;;;;;;;;;;17.60;99.90;;;;;;8332064;28;19987;-70
2023/07/22 08:43:34;;;;;;;;;;;17.90;99.90;;;;;;8333917;28;19925;-71
2023/07/22 08:47:38;;;;;;;;;;;17.90;99.90;;;;;;8345188;28;20289;-71
2023/07/22 08:51:40;;;;;;;;;;;18.00;99.90;;;;;;8324824;28;19940;-71
2023/07/22 08:55:42;;;;;;;;;;;18.10;99.90;;;;;;8329157;28;19951;-71
2023/07/22 08:59:44;;;;;;;;;;;18.20;99.90;;;;;;8326271;28;19925;-70
2023/07/22 09:03:47;;;;;;;;;;;18.30;99.90;;;;;;8347532;28;19925;-71
2023/07/22 09:07:52;;;;;;;;;;;18.30;99.90;;;;;;8333505;28;19931;-71
2023/07/22 09:11:55;;;;;;;;;;;18.40;99.90;;;;;;8344505;28;19947;-70
2023/07/22 09:15:57;;;;;;;;;;;18.40;99.90;;;;;;8333955;28;19929;-70
2023/07/22 09:19:58;;;;;;;;;;;18.40;99.90;;;;;;8338498;28;19925;-71
2023/07/22 09:24:00;;;;;;;;;;;18.40;99.90;;;;;;8330845;28;19981;-70
2023/07/22 09:28:02;;;;;;;;;;;18.40;99.90;;;;;;8333097;28;19990;-71
2023/07/22 09:32:10;;;;;;;;;;;18.40;99.90;;;;;;8346192;28;19936;-71
2023/07/22 09:36:12;;;;;;;;;;;18.40;99.90;;;;;;8342731;28;20381;-71
2023/07/22 09:40:15;;;;;;;;;;;18.50;99.90;;;;;;8327555;28;19925;-71
2023/07/22 09:44:16;;;;;;;;;;;18.60;99.90;;;;;;8346515;28;19925;-71
2023/07/22 09:48:21;;;;;;;;;;;18.60;99.90;;;;;;8320302;28;20040;-72
2023/07/22 09:52:24;;;;;;;;;;;18.60;99.90;;;;;;8334955;28;19929;-72
2023/07/22 09:56:25;;;;;;;;;;;18.70;99.90;;;;;;8343104;28;19924;-71
2023/07/22 10:00:29;;;;;;;;;;;18.70;99.90;;;;;;8326243;28;19931;-70
2023/07/22 10:04:33;;;;;;;;;;;18.70;99.90;;;;;;8332450;28;19925;-70
2023/07/22 10:08:36;;;;;;;;;;;18.80;99.90;;;;;;8332253;28;19932;-71
2023/07/22 10:12:41;;;;;;;;;;;18.80;99.90;;;;;;8350189;28;20899;-70
2023/07/22 10:16:42;;;;;;;;;;;18.90;99.90;;;;;;8330793;28;19928;-71
2023/07/22 10:20:44;;;;;;;;;;;19.00;99.90;;;;;;8328374;28;19929;-71
2023/07/22 10:24:47;;;;;;;;;;;19.10;99.90;;;;;;8334546;28;19991;-70
2023/07/22 10:28:48;;;;;;;;;;;19.20;99.90;;;;;;8330159;28;19933;-71
2023/07/22 10:32:51;;;;;;;;;;;19.20;99.90;;;;;;8334595;28;19933;-71
2023/07/22 10:36:55;;;;;;;;;;;19.30;99.90;;;;;;8328146;28;19939;-71
2023/07/22 10:40:57;;;;;;;;;;;19.30;99.90;;;;;;8332174;28;19932;-71
2023/07/22 10:44:59;;;;;;;;;;;19.20;99.90;;;;;;8333694;28;20387;-71
2023/07/22 10:49:12;;;;;;;;;;;19.10;99.90;;;;;;8330706;28;19929;-70
2023/07/22 10:53:14;;;;;;;;;;;19.00;99.90;;;;;;8341334;28;20383;-72
2023/07/22 10:57:15;;;;;;;;;;;18.80;99.90;;;;;;8335934;28;19961;-71
2023/07/22 11:01:37;;;;;;;;;;;18.60;99.90;;;;;;8347543;28;19929;-71
2023/07/22 11:05:55;;;;;;;;;;;18.50;99.90;;;;;;8326699;28;20670;-71
2023/07/22 11:09:57;;;;;;;;;;;18.60;99.90;;;;;;8343410;28;19929;-71
2023/07/22 11:14:12;;;;;;;;;;;18.70;99.90;;;;;;8334918;28;19979;-70
2023/07/22 11:18:14;;;;;;;;;;;18.80;99.90;;;;;;8347210;28;19951;-71
2023/07/22 11:22:15;;;;;;;;;;;18.80;99.90;;;;;;8331329;28;19925;-71
2023/07/22 11:26:17;;;;;;;;;;;18.80;99.90;;;;;;8333013;28;19929;-71
2023/07/22 11:30:19;;;;;;;;;;;18.90;99.90;;;;;;8335935;28;20368;-71
2023/07/22 11:34:22;;;;;;;;;;;19.10;99.90;;;;;;8332382;28;19971;-71
2023/07/22 11:38:24;;;;;;;;;;;19.30;99.90;;;;;;8333222;28;20320;-71
2023/07/22 11:42:26;;;;;;;;;;;19.40;99.90;;;;;;8330290;28;19932;-72
2023/07/22 11:46:28;;;;;;;;;;;19.40;99.90;;;;;;8334144;28;19979;-71
2023/07/22 11:50:33;;;;;;;;;;;19.40;99.90;;;;;;8335843;28;20329;-71
2023/07/22 11:54:36;;;;;;;;;;;19.30;99.90;;;;;;8352789;28;19925;-71
2023/07/22 11:58:38;;;;;;;;;;;19.10;99.90;;;;;;8331913;28;19987;-71
2023/07/22 12:02:41;;;;;;;;;;;18.90;99.90;;;;;;8348045;28;19933;-71
2023/07/22 12:06:42;;;;;;;;;;;18.70;99.90;;;;;;8331437;28;19932;-70
2023/07/22 12:10:44;;;;;;;;;;;18.50;99.90;;;;;;8331184;28;19933;-70
2023/07/22 12:14:46;;;;;;;;;;;18.30;99.90;;;;;;8354284;28;19929;-71
2023/07/22 12:18:47;;;;;;;;;;;18.30;99.90;;;;;;8334913;28;19929;-71
2023/07/22 12:22:49;;;;;;;;;;;18.20;99.90;;;;;;8346684;28;20411;-71
2023/07/22 12:26:51;;;;;;;;;;;18.30;99.90;;;;;;8328664;28;20289;-71
2023/07/22 12:30:52;;;;;;;;;;;18.40;99.90;;;;;;8335615;28;19925;-70
2023/07/22 12:34:54;;;;;;;;;;;18.60;99.90;;;;;;8329116;28;20398;-71
2023/07/22 12:38:56;;;;;;;;;;;18.80;99.90;;;;;;8334453;28;20276;-71
2023/07/22 12:42:57;;;;;;;;;;;18.80;99.90;;;;;;8329013;28;19928;-71
2023/07/22 12:47:01;;;;;;;;;;;18.80;99.90;;;;;;8331960;28;20367;-71
2023/07/22 12:51:03;;;;;;;;;;;18.90;99.90;;;;;;8334786;28;19932;-70
2023/07/22 12:55:04;;;;;;;;;;;19.00;99.90;;;;;;8330514;28;19929;-71
2023/07/22 12:59:06;;;;;;;;;;;19.10;99.90;;;;;;8334159;28;19932;-71
2023/07/22 13:03:07;;;;;;;;;;;19.10;99.90;;;;;;8330743;28;19947;-71
2023/07/22 13:07:09;;;;;;;;;;;19.00;99.90;;;;;;8330083;28;19925;-70
2023/07/22 13:11:11;;;;;;;;;;;18.90;99.90;;;;;;8347669;28;19929;-71
2023/07/22 13:15:13;;;;;;;;;;;18.80;99.90;;;;;;8332485;28;19937;-71
2023/07/22 13:19:14;;;;;;;;;;;18.80;99.90;;;;;;8327871;28;19932;-71
2023/07/22 13:23:16;;;;;;;;;;;18.70;99.90;;;;;;8331921;28;19925;-71
2023/07/22 13:27:18;;;;;;;;;;;18.60;99.90;;;;;;8332546;28;19924;-71
2023/07/22 13:31:20;;;;;;;;;;;18.50;99.90;;;;;;8335078;28;19966;-71
2023/07/22 13:35:21;;;;;;;;;;;18.30;99.90;;;;;;8329115;28;20422;-71
2023/07/22 13:39:23;;;;;;;;;;;18.20;99.90;;;;;;8338377;28;19933;-71
2023/07/22 13:43:27;;;;;;;;;;;18.10;99.90;;;;;;8343311;28;20311;-71
2023/07/22 13:47:28;;;;;;;;;;;18.00;99.90;;;;;;8329762;28;19932;-71
2023/07/22 13:51:30;;;;;;;;;;;18.10;99.90;;;;;;8331061;28;19929;-72
2023/07/22 13:55:32;;;;;;;;;;;18.10;99.90;;;;;;8325895;28;19933;-71
2023/07/22 13:59:33;;;;;;;;;;;18.20;99.90;;;;;;8325229;28;19972;-71
2023/07/22 14:03:35;;;;;;;;;;;18.20;99.90;;;;;;8322430;28;19971;-71
2023/07/22 14:07:38;;;;;;;;;;;18.30;99.90;;;;;;8330541;28;19925;-71
2023/07/22 14:11:39;;;;;;;;;;;18.30;99.90;;;;;;8331240;28;19975;-71
2023/07/22 14:15:43;;;;;;;;;;;18.40;99.90;;;;;;8336347;28;19936;-71
2023/07/22 14:19:44;;;;;;;;;;;18.50;99.90;;;;;;8331754;28;19933;-71
2023/07/22 14:23:46;;;;;;;;;;;18.50;99.90;;;;;;8333558;28;19940;-71
2023/07/22 14:27:48;;;;;;;;;;;18.60;99.90;;;;;;8339265;28;20337;-71
2023/07/22 14:31:50;;;;;;;;;;;18.60;99.90;;;;;;8335854;28;20479;-71
2023/07/22 14:35:52;;;;;;;;;;;18.70;99.90;;;;;;8338090;28;19932;-71
2023/07/22 14:39:53;;;;;;;;;;;18.70;99.90;;;;;;8348918;28;19947;-71
2023/07/22 14:43:55;;;;;;;;;;;18.70;99.90;;;;;;8341964;28;20418;-71
2023/07/22 14:47:57;;;;;;;;;;;18.80;99.90;;;;;;8342406;28;19936;-71
2023/07/22 14:51:59;;;;;;;;;;;18.80;99.90;;;;;;8333300;28;19929;-71
2023/07/22 14:56:00;;;;;;;;;;;18.80;99.90;;;;;;8347028;28;20020;-71
2023/07/22 15:00:02;;;;;;;;;;;18.90;99.90;;;;;;8331293;28;19971;-71
2023/07/22 15:04:04;;;;;;;;;;;18.90;99.90;;;;;;8352574;28;20261;-71
2023/07/22 15:08:06;;;;;;;;;;;18.90;99.90;;;;;;8333545;28;20011;-71
2023/07/22 15:12:08;;;;;;;;;;;18.90;99.90;;;;;;8349989;28;19933;-71
2023/07/22 15:16:09;;;;;;;;;;;18.80;99.90;;;;;;8337966;28;19936;-71
2023/07/22 15:20:11;;;;;;;;;;;18.70;99.90;;;;;;8352022;28;19929;-71
2023/07/22 15:24:13;;;;;;;;;;;18.50;99.90;;;;;;8330378;28;19929;-71
2023/07/22 15:28:14;;;;;;;;;;;18.30;99.90;;;;;;8331790;28;19936;-71
2023/07/22 15:32:16;;;;;;;;;;;18.30;99.90;;;;;;8343229;28;19932;-71
2023/07/22 15:36:18;;;;;;;;;;;18.30;99.90;;;;;;8354223;28;19924;-71
2023/07/22 15:40:19;;;;;;;;;;;18.30;99.90;;;;;;8318445;28;19967;-71
2023/07/22 15:44:27;;;;;;;;;;;18.30;99.90;;;;;;8333271;28;19940;-71
2023/07/22 15:48:28;;;;;;;;;;;18.40;99.90;;;;;;8336509;28;19924;-71
2023/07/22 15:52:30;;;;;;;;;;;18.50;99.90;;;;;;8328707;28;19932;-71
2023/07/22 15:56:32;;;;;;;;;;;18.60;99.90;;;;;;8330223;28;19925;-71
2023/07/22 16:00:33;;;;;;;;;;;18.60;99.90;;;;;;8333769;28;19929;-71
2023/07/22 16:04:35;;;;;;;;;;;18.60;99.90;;;;;;8328137;28;19925;-71
2023/07/22 16:08:39;;;;;;;;;;;18.50;99.90;;;;;;8331339;28;19932;-71
2023/07/22 16:12:40;;;;;;;;;;;18.50;99.90;;;;;;8328469;28;19925;-71
2023/07/22 16:16:42;;;;;;;;;;;18.50;99.90;;;;;;8346349;28;19929;-71
2023/07/22 16:20:44;;;;;;;;;;;18.50;99.90;;;;;;8331840;28;19929;-71
2023/07/22 16:24:45;;;;;;;;;;;18.60;99.90;;;;;;8341116;28;19999;-71
2023/07/22 16:28:47;;;;;;;;;;;18.70;99.90;;;;;;8336025;28;19936;-71
2023/07/22 16:32:49;;;;;;;;;;;18.80;99.90;;;;;;8328633;28;20285;-71
2023/07/22 16:36:51;;;;;;;;;;;18.80;99.90;;;;;;8334383;28;19929;-71
2023/07/22 16:40:53;;;;;;;;;;;18.90;99.90;;;;;;8349065;28;19929;-71
2023/07/22 16:44:54;;;;;;;;;;;18.90;99.90;;;;;;8344345;28;19929;-71
2023/07/22 16:48:56;;;;;;;;;;;18.90;99.90;;;;;;8328021;28;19925;-71
2023/07/22 16:52:58;;;;;;;;;;;18.90;99.90;;;;;;8326092;28;19925;-71
2023/07/22 16:57:00;;;;;;;;;;;18.90;99.90;;;;;;8338009;28;19925;-71
2023/07/22 17:01:02;;;;;;;;;;;18.90;99.90;;;;;;8332319;28;19926;-71
2023/07/22 17:05:04;;;;;;;;;;;18.90;99.90;;;;;;8325183;28;19929;-71
2023/07/22 17:09:06;;;;;;;;;;;18.90;99.90;;;;;;8326396;28;19933;-71
2023/07/22 17:13:08;;;;;;;;;;;18.90;99.90;;;;;;8343319;28;20393;-71
2023/07/22 17:17:09;;;;;;;;;;;18.90;99.90;;;;;;8348698;28;20441;-71
2023/07/22 17:21:11;;;;;;;;;;;18.90;99.90;;;;;;8336398;28;20229;-71
2023/07/22 17:25:13;;;;;;;;;;;18.90;99.90;;;;;;8346031;28;19925;-71
2023/07/22 17:29:14;;;;;;;;;;;18.80;99.90;;;;;;8327126;28;19925;-71
2023/07/22 17:33:16;;;;;;;;;;;18.80;99.90;;;;;;8306896;28;19951;-71
2023/07/22 17:37:18;;;;;;;;;;;18.80;99.90;;;;;;8330335;28;19925;-71
2023/07/22 17:41:19;;;;;;;;;;;18.70;99.90;;;;;;8342917;28;19925;-71
2023/07/22 17:45:21;;;;;;;;;;;18.70;99.90;;;;;;8329390;28;19932;-70
2023/07/22 17:49:23;;;;;;;;;;;18.60;99.90;;;;;;8341667;28;19936;-70
2023/07/22 17:53:24;;;;;;;;;;;18.60;99.90;;;;;;8328350;28;19960;-70
2023/07/22 17:57:26;;;;;;;;;;;18.50;99.90;;;;;;8329204;28;20368;-71
2023/07/22 18:01:28;;;;;;;;;;;18.40;99.90;;;;;;8334750;28;19933;-71
2023/07/22 18:05:30;;;;;;;;;;;18.30;99.90;;;;;;8326425;28;19933;-71
2023/07/22 18:09:31;;;;;;;;;;;18.30;99.90;;;;;;8327532;28;19964;-70
2023/07/22 18:13:33;;;;;;;;;;;18.20;99.90;;;;;;8325824;28;19925;-71
2023/07/22 18:17:35;;;;;;;;;;;18.10;99.90;;;;;;8345427;28;20402;-71
2023/07/22 18:21:37;;;;;;;;;;;18.00;99.90;;;;;;8330951;28;20311;-71
2023/07/22 18:25:38;;;;;;;;;;;17.90;99.90;;;;;;8328938;28;20277;-70
2023/07/22 18:29:40;;;;;;;;;;;17.70;99.90;;;;;;8346905;28;19929;-71
2023/07/22 18:33:41;;;;;;;;;;;17.60;99.90;;;;;;8340990;28;19929;-71
2023/07/22 18:37:43;;;;;;;;;;;17.50;99.90;;;;;;8336567;28;19925;-71
2023/07/22 18:41:45;;;;;;;;;;;17.50;99.90;;;;;;8331723;28;19925;-71
2023/07/22 18:45:46;;;;;;;;;;;17.50;99.90;;;;;;8351064;28;19978;-71
2023/07/22 18:49:48;;;;;;;;;;;17.40;99.90;;;;;;8329757;28;19933;-71
2023/07/22 18:53:50;;;;;;;;;;;17.30;99.90;;;;;;8328313;28;19929;-72
2023/07/22 18:57:54;;;;;;;;;;;17.30;99.90;;;;;;8328205;28;20268;-71
2023/07/22 19:01:57;;;;;;;;;;;17.20;99.90;;;;;;8333522;28;19925;-71
2023/07/22 19:05:59;;;;;;;;;;;17.10;99.90;;;;;;8341797;28;19925;-71
2023/07/22 19:10:02;;;;;;;;;;;17.00;99.90;;;;;;8338341;28;19952;-71
2023/07/22 19:14:04;;;;;;;;;;;16.90;99.90;;;;;;8347248;28;19940;-71
2023/07/22 19:18:05;;;;;;;;;;;16.90;99.90;;;;;;8332952;28;19955;-71
2023/07/22 19:22:07;;;;;;;;;;;16.90;99.90;;;;;;8337182;28;19956;-72
2023/07/22 19:36:15;;;;;;;;;;;16.90;99.90;;;;;;8333137;28;19963;-71
2023/07/22 19:40:17;;;;;;;;;;;17.00;99.90;;;;;;8337473;28;19937;-72
2023/07/22 19:44:18;;;;;;;;;;;17.00;99.90;;;;;;8342168;28;19932;-72
2023/07/22 19:48:20;;;;;;;;;;;17.00;99.90;;;;;;8335011;28;19928;-72
2023/07/22 19:52:22;;;;;;;;;;;17.00;99.90;;;;;;8336724;28;19928;-71
2023/07/22 20:01:27;;;;;;;;;;;17.10;99.90;;;;;;8328879;28;20365;-71
2023/07/22 20:05:29;;;;;;;;;;;17.10;99.90;;;;;;8338635;28;19936;-71
2023/07/22 20:09:30;;;;;;;;;;;17.00;99.90;;;;;;8334096;28;19956;-72
2023/07/22 20:13:32;;;;;;;;;;;17.00;99.90;;;;;;8335050;28;19936;-72
2023/07/22 20:17:34;;;;;;;;;;;16.90;99.90;;;;;;8331096;28;19929;-71
2023/07/22 20:21:35;;;;;;;;;;;16.90;99.90;;;;;;8333246;28;19929;-71
2023/07/22 20:35:44;;;;;;;;;;;16.70;99.90;;;;;;8336337;28;20015;-71
2023/07/22 20:39:46;;;;;;;;;;;16.60;99.90;;;;;;8338118;28;19928;-71
2023/07/22 20:43:47;;;;;;;;;;;16.60;99.90;;;;;;8345200;28;20407;-71
2023/07/22 20:47:49;;;;;;;;;;;16.50;99.90;;;;;;8330219;28;19987;-71
2023/07/22 20:51:51;;;;;;;;;;;16.50;99.90;;;;;;8333188;28;19924;-71
2023/07/22 20:55:53;;;;;;;;;;;16.50;99.90;;;;;;8333071;28;20012;-71
2023/07/22 20:59:55;;;;;;;;;;;16.40;99.90;;;;;;8331312;28;19962;-71
2023/07/22 21:03:56;;;;;;;;;;;16.30;99.90;;;;;;8382077;28;19925;-71
2023/07/22 21:07:58;;;;;;;;;;;16.40;99.90;;;;;;8383176;28;19925;-71
2023/07/22 21:12:00;;;;;;;;;;;16.40;99.90;;;;;;8362221;28;20011;-71
2023/07/22 21:16:01;;;;;;;;;;;16.30;99.90;;;;;;8365977;28;19929;-71
2023/07/22 21:20:03;;;;;;;;;;;16.40;99.90;;;;;;8379525;28;19928;-71
2023/07/22 21:24:05;;;;;;;;;;;16.40;99.90;;;;;;8369475;28;19929;-71
2023/07/22 21:28:07;;;;;;;;;;;16.30;99.90;;;;;;8382505;28;19924;-71
2023/07/22 21:32:10;;;;;;;;;;;16.40;99.90;;;;;;8365253;28;19929;-71
2023/07/22 21:36:12;;;;;;;;;;;16.40;99.90;;;;;;8379779;28;19924;-71
2023/07/22 21:40:14;;;;;;;;;;;16.40;99.90;;;;;;8382933;28;19933;-71
2023/07/22 21:44:17;;;;;;;;;;;16.40;99.90;;;;;;8384475;28;20299;-70
2023/07/22 21:48:18;;;;;;;;;;;16.40;99.90;;;;;;8390718;28;19932;-71
2023/07/22 21:52:20;;;;;;;;;;;16.40;99.90;;;;;;8381773;28;19948;-71
2023/07/22 21:56:22;;;;;;;;;;;16.40;99.90;;;;;;8363347;28;19924;-71
2023/07/22 22:00:23;;;;;;;;;;;16.40;99.90;;;;;;8372545;28;20275;-71
2023/07/22 22:04:25;;;;;;;;;;;16.40;99.90;;;;;;8384676;28;19924;-70
2023/07/22 22:08:27;;;;;;;;;;;16.40;99.90;;;;;;8367956;28;19925;-71
2023/07/22 22:12:28;;;;;;;;;;;16.40;99.90;;;;;;8382114;28;19925;-71
2023/07/22 22:16:30;;;;;;;;;;;16.40;99.90;;;;;;8388038;28;20287;-70
2023/07/22 22:20:33;;;;;;;;;;;16.40;99.90;;;;;;8409161;28;20019;-71
2023/07/22 22:24:34;;;;;;;;;;;16.40;99.90;;;;;;8341908;28;19929;-71
2023/07/22 22:28:36;;;;;;;;;;;16.40;99.90;;;;;;8388202;28;19925;-71
2023/07/22 22:32:39;;;;;;;;;;;16.40;99.90;;;;;;8373232;28;19932;-71
2023/07/22 22:36:41;;;;;;;;;;;16.50;99.90;;;;;;8381533;28;20018;-71
2023/07/22 22:40:43;;;;;;;;;;;16.40;99.90;;;;;;8373551;28;19929;-71
2023/07/22 22:44:44;;;;;;;;;;;16.50;99.90;;;;;;8383960;28;20272;-70
2023/07/22 22:48:46;;;;;;;;;;;16.50;99.90;;;;;;8394097;28;20332;-71
2023/07/22 22:52:47;;;;;;;;;;;16.50;99.90;;;;;;8371833;28;20383;-71
2023/07/22 22:56:49;;;;;;;;;;;16.50;99.90;;;;;;8390938;28;19925;-71
2023/07/22 23:00:51;;;;;;;;;;;16.50;99.90;;;;;;8395729;28;19924;-70
2023/07/22 23:04:52;;;;;;;;;;;16.50;99.90;;;;;;8385209;28;19925;-70
2023/07/22 23:08:54;;;;;;;;;;;16.50;99.90;;;;;;8371901;28;19928;-70
2023/07/22 23:12:56;;;;;;;;;;;16.50;99.90;;;;;;8370804;28;20287;-70
2023/07/22 23:16:57;;;;;;;;;;;16.50;99.90;;;;;;8374083;28;19924;-71
2023/07/22 23:20:59;;;;;;;;;;;16.50;99.90;;;;;;8374134;28;19925;-70
2023/07/22 23:25:01;;;;;;;;;;;16.40;99.90;;;;;;8361379;28;19924;-71
2023/07/22 23:29:03;;;;;;;;;;;16.50;99.90;;;;;;8375483;28;19931;-71
2023/07/22 23:33:06;;;;;;;;;;;16.40;99.90;;;;;;8383527;28;19925;-71
2023/07/22 23:37:08;;;;;;;;;;;16.40;99.90;;;;;;8385835;28;20384;-71
2023/07/22 23:41:09;;;;;;;;;;;16.40;99.90;;;;;;8385466;28;20265;-71
2023/07/22 23:45:11;;;;;;;;;;;16.50;99.90;;;;;;8399889;28;20283;-71
2023/07/22 23:49:13;;;;;;;;;;;16.50;99.90;;;;;;8366970;28;19929;-71
2023/07/22 23:53:14;;;;;;;;;;;16.40;99.90;;;;;;8368915;28;20322;-70
2023/07/22 23:57:16;;;;;;;;;;;16.40;99.90;;;;;;8367862;28;19924;-71
